sensor_id;sensor_type;location;lat;lon;timestamp;pressure;altitude;pressure_sealevel;temperature
76381;BMP280;65202;52.520;10.528;2023-02-01T00:01:08;100893.16;;;5.09
76381;BMP280;65202;52.520;10.528;2023-02-01T00:03:36;100893.16;;;5.09
76381;BMP280;65202;52.520;10.528;2023-02-01T00:06:04;100882.47;;;5.10
76381;BMP280;65202;52.520;10.528;2023-02-01T00:08:31;100883.22;;;5.09
76381;BMP280;65202;52.520;10.528;2023-02-01T00:11:00;100883.66;;;5.15
76381;BMP280;65202;52.520;10.528;2023-02-01T00:13:30;100871.97;;;5.14
76381;BMP280;65202;52.520;10.528;2023-02-01T00:16:09;100873.91;;;5.18
76381;BMP280;65202;52.520;10.528;2023-02-01T00:18:39;100866.28;;;5.15
76381;BMP280;65202;52.520;10.528;2023-02-01T00:21:06;100880.81;;;5.22
76381;BMP280;65202;52.520;10.528;2023-02-01T00:23:35;100881.56;;;5.21
76381;BMP280;65202;52.520;10.528;2023-02-01T00:26:04;100867.63;;;5.23
76381;BMP280;65202;52.520;10.528;2023-02-01T00:28:32;100884.25;;;5.24
76381;BMP280;65202;52.520;10.528;2023-02-01T00:31:03;100866.44;;;5.29
76381;BMP280;65202;52.520;10.528;2023-02-01T00:33:32;100870.75;;;5.32
76381;BMP280;65202;52.520;10.528;2023-02-01T00:36:02;100858.53;;;5.35
76381;BMP280;65202;52.520;10.528;2023-02-01T00:38:33;100861.56;;;5.31
76381;BMP280;65202;52.520;10.528;2023-02-01T00:41:06;100865.00;;;5.33
76381;BMP280;65202;52.520;10.528;2023-02-01T00:43:36;100863.84;;;5.28
76381;BMP280;65202;52.520;10.528;2023-02-01T00:46:04;100861.00;;;5.35
76381;BMP280;65202;52.520;10.528;2023-02-01T00:48:32;100845.34;;;5.36
76381;BMP280;65202;52.520;10.528;2023-02-01T00:51:01;100855.88;;;5.45
76381;BMP280;65202;52.520;10.528;2023-02-01T00:53:30;100853.97;;;5.41
76381;BMP280;65202;52.520;10.528;2023-02-01T00:55:57;100844.56;;;5.37
76381;BMP280;65202;52.520;10.528;2023-02-01T00:58:25;100838.28;;;5.42
76381;BMP280;65202;52.520;10.528;2023-02-01T01:03:38;100840.75;;;5.42
76381;BMP280;65202;52.520;10.528;2023-02-01T01:06:15;100835.63;;;5.39
76381;BMP280;65202;52.520;10.528;2023-02-01T01:08:44;100845.72;;;5.42
76381;BMP280;65202;52.520;10.528;2023-02-01T01:11:17;100844.47;;;5.35
76381;BMP280;65202;52.520;10.528;2023-02-01T01:13:48;100846.63;;;5.42
76381;BMP280;65202;52.520;10.528;2023-02-01T01:16:18;100834.94;;;5.41
76381;BMP280;65202;52.520;10.528;2023-02-01T01:18:46;100841.84;;;5.45
76381;BMP280;65202;52.520;10.528;2023-02-01T01:21:15;100841.66;;;5.42
76381;BMP280;65202;52.520;10.528;2023-02-01T01:23:44;100844.22;;;5.44
76381;BMP280;65202;52.520;10.528;2023-02-01T01:26:18;100856.94;;;5.48
76381;BMP280;65202;52.520;10.528;2023-02-01T01:28:48;100848.53;;;5.46
76381;BMP280;65202;52.520;10.528;2023-02-01T01:31:19;100831.72;;;5.42
76381;BMP280;65202;52.520;10.528;2023-02-01T01:33:49;100838.19;;;5.40
76381;BMP280;65202;52.520;10.528;2023-02-01T01:36:18;100836.59;;;5.41
76381;BMP280;65202;52.520;10.528;2023-02-01T01:38:46;100834.28;;;5.44
76381;BMP280;65202;52.520;10.528;2023-02-01T01:41:20;100837.75;;;5.46
76381;BMP280;65202;52.520;10.528;2023-02-01T01:43:53;100814.13;;;5.39
76381;BMP280;65202;52.520;10.528;2023-02-01T01:46:28;100813.59;;;5.43
76381;BMP280;65202;52.520;10.528;2023-02-01T01:49:10;100819.41;;;5.44
76381;BMP280;65202;52.520;10.528;2023-02-01T01:51:54;100828.56;;;5.45
76381;BMP280;65202;52.520;10.528;2023-02-01T01:54:27;100817.00;;;5.45
76381;BMP280;65202;52.520;10.528;2023-02-01T01:57:09;100812.91;;;5.46
76381;BMP280;65202;52.520;10.528;2023-02-01T01:59:43;100809.66;;;5.47
76381;BMP280;65202;52.520;10.528;2023-02-01T02:02:17;100806.41;;;5.48
76381;BMP280;65202;52.520;10.528;2023-02-01T02:04:44;100807.94;;;5.46
76381;BMP280;65202;52.520;10.528;2023-02-01T02:07:23;100807.72;;;5.43
76381;BMP280;65202;52.520;10.528;2023-02-01T02:09:55;100800.38;;;5.44
76381;BMP280;65202;52.520;10.528;2023-02-01T02:12:28;100804.50;;;5.44
76381;BMP280;65202;52.520;10.528;2023-02-01T02:14:58;100803.25;;;5.37
76381;BMP280;65202;52.520;10.528;2023-02-01T02:17:46;100798.94;;;5.35
76381;BMP280;65202;52.520;10.528;2023-02-01T02:23:19;100793.31;;;5.37
76381;BMP280;65202;52.520;10.528;2023-02-01T02:26:29;100799.78;;;5.35
76381;BMP280;65202;52.520;10.528;2023-02-01T02:29:20;100797.97;;;5.33
76381;BMP280;65202;52.520;10.528;2023-02-01T02:35:30;100783.06;;;5.33
76381;BMP280;65202;52.520;10.528;2023-02-01T02:38:24;100773.53;;;5.26
76381;BMP280;65202;52.520;10.528;2023-02-01T02:41:59;100768.75;;;5.29
76381;BMP280;65202;52.520;10.528;2023-02-01T02:48:17;100767.03;;;5.28
76381;BMP280;65202;52.520;10.528;2023-02-01T02:51:01;100760.38;;;5.27
76381;BMP280;65202;52.520;10.528;2023-02-01T02:54:12;100760.25;;;5.25
76381;BMP280;65202;52.520;10.528;2023-02-01T02:57:02;100765.09;;;5.24
76381;BMP280;65202;52.520;10.528;2023-02-01T02:59:52;100757.75;;;5.25
76381;BMP280;65202;52.520;10.528;2023-02-01T03:02:39;100753.19;;;5.31
76381;BMP280;65202;52.520;10.528;2023-02-01T03:05:32;100759.69;;;5.29
76381;BMP280;65202;52.520;10.528;2023-02-01T03:16:10;100732.50;;;5.31
76381;BMP280;65202;52.520;10.528;2023-02-01T03:19:02;100735.91;;;5.33
76381;BMP280;65202;52.520;10.528;2023-02-01T03:21:41;100728.84;;;5.26
76381;BMP280;65202;52.520;10.528;2023-02-01T03:27:05;100728.09;;;5.27
76381;BMP280;65202;52.520;10.528;2023-02-01T03:29:49;100709.38;;;5.32
76381;BMP280;65202;52.520;10.528;2023-02-01T03:32:23;100715.47;;;5.37
76381;BMP280;65202;52.520;10.528;2023-02-01T03:34:50;100713.47;;;5.31
76381;BMP280;65202;52.520;10.528;2023-02-01T03:37:26;100710.63;;;5.38
76381;BMP280;65202;52.520;10.528;2023-02-01T03:42:37;100699.81;;;5.38
76381;BMP280;65202;52.520;10.528;2023-02-01T03:45:26;100695.81;;;5.40
76381;BMP280;65202;52.520;10.528;2023-02-01T03:48:01;100695.63;;;5.37
76381;BMP280;65202;52.520;10.528;2023-02-01T03:50:33;100695.75;;;5.38
76381;BMP280;65202;52.520;10.528;2023-02-01T03:53:08;100696.75;;;5.42
76381;BMP280;65202;52.520;10.528;2023-02-01T03:55:41;100687.13;;;5.46
76381;BMP280;65202;52.520;10.528;2023-02-01T03:58:13;100690.47;;;5.47
76381;BMP280;65202;52.520;10.528;2023-02-01T04:00:51;100673.88;;;5.46
76381;BMP280;65202;52.520;10.528;2023-02-01T04:03:21;100669.75;;;5.46
76381;BMP280;65202;52.520;10.528;2023-02-01T04:05:49;100669.75;;;5.46
76381;BMP280;65202;52.520;10.528;2023-02-01T04:08:19;100665.75;;;5.48
76381;BMP280;65202;52.520;10.528;2023-02-01T04:10:47;100657.53;;;5.49
76381;BMP280;65202;52.520;10.528;2023-02-01T04:13:14;100661.63;;;5.49
76381;BMP280;65202;52.520;10.528;2023-02-01T04:15:41;100647.50;;;5.48
76381;BMP280;65202;52.520;10.528;2023-02-01T04:18:08;100644.25;;;5.49
76381;BMP280;65202;52.520;10.528;2023-02-01T04:20:35;100641.88;;;5.50
76381;BMP280;65202;52.520;10.528;2023-02-01T04:23:03;100643.69;;;5.53
76381;BMP280;65202;52.520;10.528;2023-02-01T04:25:30;100636.06;;;5.50
76381;BMP280;65202;52.520;10.528;2023-02-01T04:27:57;100641.03;;;5.50
76381;BMP280;65202;52.520;10.528;2023-02-01T04:30:24;100646.00;;;5.50
76381;BMP280;65202;52.520;10.528;2023-02-01T04:32:52;100638.31;;;5.47
76381;BMP280;65202;52.520;10.528;2023-02-01T04:35:19;100620.94;;;5.47
76381;BMP280;65202;52.520;10.528;2023-02-01T04:37:46;100631.66;;;5.46
76381;BMP280;65202;52.520;10.528;2023-02-01T04:40:13;100620.59;;;5.41
76381;BMP280;65202;52.520;10.528;2023-02-01T04:42:41;100622.28;;;5.42
76381;BMP280;65202;52.520;10.528;2023-02-01T04:45:08;100620.00;;;5.45
76381;BMP280;65202;52.520;10.528;2023-02-01T04:47:35;100608.84;;;5.38
76381;BMP280;65202;52.520;10.528;2023-02-01T04:50:03;100609.78;;;5.40
76381;BMP280;65202;52.520;10.528;2023-02-01T04:52:31;100604.91;;;5.42
76381;BMP280;65202;52.520;10.528;2023-02-01T04:54:59;100608.94;;;5.40
76381;BMP280;65202;52.520;10.528;2023-02-01T04:57:27;100595.78;;;5.41
76381;BMP280;65202;52.520;10.528;2023-02-01T04:59:54;100603.97;;;5.40
76381;BMP280;65202;52.520;10.528;2023-02-01T05:02:21;100592.31;;;5.39
76381;BMP280;65202;52.520;10.528;2023-02-01T05:04:49;100598.50;;;5.45
76381;BMP280;65202;52.520;10.528;2023-02-01T05:07:17;100598.59;;;5.47
76381;BMP280;65202;52.520;10.528;2023-02-01T05:09:44;100600.25;;;5.46
76381;BMP280;65202;52.520;10.528;2023-02-01T05:12:11;100592.88;;;5.48
76381;BMP280;65202;52.520;10.528;2023-02-01T05:14:57;100579.53;;;5.46
76381;BMP280;65202;52.520;10.528;2023-02-01T05:17:25;100588.78;;;5.48
76381;BMP280;65202;52.520;10.528;2023-02-01T05:19:53;100586.00;;;5.44
76381;BMP280;65202;52.520;10.528;2023-02-01T05:22:20;100598.44;;;5.44
76381;BMP280;65202;52.520;10.528;2023-02-01T05:24:47;100582.22;;;5.36
76381;BMP280;65202;52.520;10.528;2023-02-01T05:27:14;100587.94;;;5.35
76381;BMP280;65202;52.520;10.528;2023-02-01T05:29:41;100596.34;;;5.24
76381;BMP280;65202;52.520;10.528;2023-02-01T05:32:09;100594.81;;;5.13
76381;BMP280;65202;52.520;10.528;2023-02-01T05:34:48;100592.53;;;5.03
76381;BMP280;65202;52.520;10.528;2023-02-01T05:37:16;100588.69;;;4.95
76381;BMP280;65202;52.520;10.528;2023-02-01T05:39:43;100584.50;;;4.94
76381;BMP280;65202;52.520;10.528;2023-02-01T05:42:10;100578.53;;;6.24
76381;BMP280;65202;52.520;10.528;2023-02-01T05:44:37;100566.97;;;6.25
76381;BMP280;65202;52.520;10.528;2023-02-01T05:47:04;100568.72;;;6.54
76381;BMP280;65202;52.520;10.528;2023-02-01T05:49:32;100572.63;;;6.36
76381;BMP280;65202;52.520;10.528;2023-02-01T05:51:59;100584.97;;;5.27
76381;BMP280;65202;52.520;10.528;2023-02-01T05:54:26;100570.22;;;5.03
76381;BMP280;65202;52.520;10.528;2023-02-01T05:56:53;100565.03;;;5.00
76381;BMP280;65202;52.520;10.528;2023-02-01T05:59:21;100568.28;;;4.99
76381;BMP280;65202;52.520;10.528;2023-02-01T06:01:48;100570.94;;;4.89
76381;BMP280;65202;52.520;10.528;2023-02-01T06:04:16;100560.47;;;4.93
76381;BMP280;65202;52.520;10.528;2023-02-01T06:06:43;100559.31;;;4.88
76381;BMP280;65202;52.520;10.528;2023-02-01T06:09:10;100549.84;;;4.83
76381;BMP280;65202;52.520;10.528;2023-02-01T06:11:39;100545.88;;;4.85
76381;BMP280;65202;52.520;10.528;2023-02-01T06:14:07;100543.66;;;4.89
76381;BMP280;65202;52.520;10.528;2023-02-01T06:16:34;100537.25;;;4.93
76381;BMP280;65202;52.520;10.528;2023-02-01T06:19:01;100548.91;;;4.94
76381;BMP280;65202;52.520;10.528;2023-02-01T06:21:29;100541.56;;;4.95
76381;BMP280;65202;52.520;10.528;2023-02-01T06:23:56;100543.09;;;4.93
76381;BMP280;65202;52.520;10.528;2023-02-01T06:26:24;100547.75;;;5.01
76381;BMP280;65202;52.520;10.528;2023-02-01T06:28:52;100543.28;;;4.96
76381;BMP280;65202;52.520;10.528;2023-02-01T06:31:19;100548.06;;;5.06
76381;BMP280;65202;52.520;10.528;2023-02-01T06:33:46;100538.97;;;5.06
76381;BMP280;65202;52.520;10.528;2023-02-01T06:36:14;100538.41;;;5.10
76381;BMP280;65202;52.520;10.528;2023-02-01T06:38:42;100537.56;;;5.10
76381;BMP280;65202;52.520;10.528;2023-02-01T06:41:10;100544.91;;;5.08
76381;BMP280;65202;52.520;10.528;2023-02-01T06:43:37;100547.09;;;5.04
76381;BMP280;65202;52.520;10.528;2023-02-01T06:46:07;100544.31;;;5.12
76381;BMP280;65202;52.520;10.528;2023-02-01T06:48:36;100550.94;;;5.12
76381;BMP280;65202;52.520;10.528;2023-02-01T06:51:04;100559.88;;;5.10
76381;BMP280;65202;52.520;10.528;2023-02-01T06:53:32;100549.03;;;5.08
76381;BMP280;65202;52.520;10.528;2023-02-01T06:56:02;100545.41;;;5.03
76381;BMP280;65202;52.520;10.528;2023-02-01T06:58:31;100545.94;;;4.86
76381;BMP280;65202;52.520;10.528;2023-02-01T07:01:06;100544.63;;;4.78
76381;BMP280;65202;52.520;10.528;2023-02-01T07:03:35;100560.25;;;4.77
76381;BMP280;65202;52.520;10.528;2023-02-01T07:06:03;100577.22;;;4.71
76381;BMP280;65202;52.520;10.528;2023-02-01T07:08:32;100564.38;;;4.77
76381;BMP280;65202;52.520;10.528;2023-02-01T07:11:06;100571.31;;;4.69
76381;BMP280;65202;52.520;10.528;2023-02-01T07:13:36;100553.00;;;4.67
76381;BMP280;65202;52.520;10.528;2023-02-01T07:16:06;100558.72;;;4.66
76381;BMP280;65202;52.520;10.528;2023-02-01T07:18:38;100569.69;;;4.70
76381;BMP280;65202;52.520;10.528;2023-02-01T07:21:05;100573.69;;;4.68
76381;BMP280;65202;52.520;10.528;2023-02-01T07:23:34;100584.66;;;4.71
76381;BMP280;65202;52.520;10.528;2023-02-01T07:26:04;100600.09;;;4.67
76381;BMP280;65202;52.520;10.528;2023-02-01T07:28:34;100581.25;;;4.69
76381;BMP280;65202;52.520;10.528;2023-02-01T07:31:16;100600.41;;;4.72
76381;BMP280;65202;52.520;10.528;2023-02-01T07:33:48;100604.31;;;4.68
76381;BMP280;65202;52.520;10.528;2023-02-01T07:36:18;100604.50;;;4.71
76381;BMP280;65202;52.520;10.528;2023-02-01T07:38:46;100616.16;;;4.72
76381;BMP280;65202;52.520;10.528;2023-02-01T07:41:15;100615.09;;;4.69
76381;BMP280;65202;52.520;10.528;2023-02-01T07:43:44;100623.41;;;4.69
76381;BMP280;65202;52.520;10.528;2023-02-01T07:46:11;100626.63;;;4.68
76381;BMP280;65202;52.520;10.528;2023-02-01T07:48:39;100641.91;;;4.74
76381;BMP280;65202;52.520;10.528;2023-02-01T07:51:12;100639.22;;;4.71
76381;BMP280;65202;52.520;10.528;2023-02-01T07:53:41;100639.03;;;4.68
76381;BMP280;65202;52.520;10.528;2023-02-01T07:56:17;100634.66;;;4.77
76381;BMP280;65202;52.520;10.528;2023-02-01T07:58:49;100636.06;;;4.74
76381;BMP280;65202;52.520;10.528;2023-02-01T08:01:20;100634.84;;;4.80
76381;BMP280;65202;52.520;10.528;2023-02-01T08:03:57;100648.22;;;4.82
76381;BMP280;65202;52.520;10.528;2023-02-01T08:06:29;100653.53;;;4.75
76381;BMP280;65202;52.520;10.528;2023-02-01T08:09:02;100624.84;;;4.79
76381;BMP280;65202;52.520;10.528;2023-02-01T08:11:30;100628.91;;;4.65
76381;BMP280;65202;52.520;10.528;2023-02-01T08:13:58;100629.31;;;4.71
76381;BMP280;65202;52.520;10.528;2023-02-01T08:16:26;100641.13;;;4.75
76381;BMP280;65202;52.520;10.528;2023-02-01T08:18:53;100642.66;;;4.73
76381;BMP280;65202;52.520;10.528;2023-02-01T08:21:26;100651.44;;;4.81
76381;BMP280;65202;52.520;10.528;2023-02-01T08:24:04;100650.38;;;4.78
76381;BMP280;65202;52.520;10.528;2023-02-01T08:26:32;100635.44;;;4.89
76381;BMP280;65202;52.520;10.528;2023-02-01T08:29:02;100646.41;;;4.93
76381;BMP280;65202;52.520;10.528;2023-02-01T08:31:31;100642.34;;;4.93
76381;BMP280;65202;52.520;10.528;2023-02-01T08:34:00;100647.66;;;4.99
76381;BMP280;65202;52.520;10.528;2023-02-01T08:36:31;100643.09;;;5.05
76381;BMP280;65202;52.520;10.528;2023-02-01T08:38:58;100648.06;;;5.05
76381;BMP280;65202;52.520;10.528;2023-02-01T08:41:28;100644.63;;;5.03
76381;BMP280;65202;52.520;10.528;2023-02-01T08:43:57;100638.88;;;5.04
76381;BMP280;65202;52.520;10.528;2023-02-01T08:46:25;100647.22;;;5.04
76381;BMP280;65202;52.520;10.528;2023-02-01T08:48:52;100638.13;;;5.05
76381;BMP280;65202;52.520;10.528;2023-02-01T08:51:21;100643.31;;;5.08
76381;BMP280;65202;52.520;10.528;2023-02-01T08:53:49;100638.13;;;5.05
76381;BMP280;65202;52.520;10.528;2023-02-01T08:56:18;100647.31;;;5.19
76381;BMP280;65202;52.520;10.528;2023-02-01T08:58:46;100634.31;;;5.23
76381;BMP280;65202;52.520;10.528;2023-02-01T09:01:15;100632.63;;;5.22
76381;BMP280;65202;52.520;10.528;2023-02-01T09:03:43;100636.72;;;5.21
76381;BMP280;65202;52.520;10.528;2023-02-01T09:06:13;100634.44;;;5.24
76381;BMP280;65202;52.520;10.528;2023-02-01T09:08:42;100649.88;;;5.20
76381;BMP280;65202;52.520;10.528;2023-02-01T09:11:15;100650.75;;;5.21
76381;BMP280;65202;52.520;10.528;2023-02-01T09:13:46;100657.22;;;6.51
76381;BMP280;65202;52.520;10.528;2023-02-01T09:16:14;100645.72;;;6.53
76381;BMP280;65202;52.520;10.528;2023-02-01T09:18:42;100642.16;;;7.05
76381;BMP280;65202;52.520;10.528;2023-02-01T09:21:28;100635.25;;;7.45
76381;BMP280;65202;52.520;10.528;2023-02-01T09:23:55;100640.25;;;6.73
76381;BMP280;65202;52.520;10.528;2023-02-01T09:26:22;100647.91;;;6.34
76381;BMP280;65202;52.520;10.528;2023-02-01T09:28:59;100662.09;;;5.95
76381;BMP280;65202;52.520;10.528;2023-02-01T09:31:27;100668.41;;;5.51
76381;BMP280;65202;52.520;10.528;2023-02-01T09:33:54;100677.44;;;4.99
76381;BMP280;65202;52.520;10.528;2023-02-01T09:36:21;100685.56;;;4.59
76381;BMP280;65202;52.520;10.528;2023-02-01T09:38:50;100667.13;;;4.56
76381;BMP280;65202;52.520;10.528;2023-02-01T09:41:43;100666.91;;;4.53
76381;BMP280;65202;52.520;10.528;2023-02-01T09:44:37;100670.91;;;4.51
76381;BMP280;65202;52.520;10.528;2023-02-01T09:47:16;100657.09;;;4.30
76381;BMP280;65202;52.520;10.528;2023-02-01T09:49:53;100638.44;;;4.59
76381;BMP280;65202;52.520;10.528;2023-02-01T09:52:41;100671.31;;;4.33
76381;BMP280;65202;52.520;10.528;2023-02-01T09:55:23;100664.38;;;4.40
76381;BMP280;65202;52.520;10.528;2023-02-01T09:57:58;100678.00;;;4.34
76381;BMP280;65202;52.520;10.528;2023-02-01T10:00:34;100669.88;;;4.60
76381;BMP280;65202;52.520;10.528;2023-02-01T10:03:04;100666.56;;;4.36
76381;BMP280;65202;52.520;10.528;2023-02-01T10:09:07;100665.81;;;4.98
76381;BMP280;65202;52.520;10.528;2023-02-01T10:12:04;100646.72;;;5.10
76381;BMP280;65202;52.520;10.528;2023-02-01T10:14:52;100654.56;;;5.29
76381;BMP280;65202;52.520;10.528;2023-02-01T10:20:30;100649.22;;;5.49
76381;BMP280;65202;52.520;10.528;2023-02-01T10:26:33;100650.41;;;6.76
76381;BMP280;65202;52.520;10.528;2023-02-01T10:29:18;100648.84;;;6.78
76381;BMP280;65202;52.520;10.528;2023-02-01T10:31:49;100640.63;;;6.93
76381;BMP280;65202;52.520;10.528;2023-02-01T10:34:21;100635.72;;;7.09
76381;BMP280;65202;52.520;10.528;2023-02-01T10:36:58;100635.72;;;7.09
76381;BMP280;65202;52.520;10.528;2023-02-01T10:39:28;100629.28;;;6.98
76381;BMP280;65202;52.520;10.528;2023-02-01T10:41:56;100633.41;;;6.69
76381;BMP280;65202;52.520;10.528;2023-02-01T10:44:30;100632.00;;;6.59
76381;BMP280;65202;52.520;10.528;2023-02-01T10:47:02;100632.34;;;6.51
76381;BMP280;65202;52.520;10.528;2023-02-01T10:49:34;100638.84;;;6.49
76381;BMP280;65202;52.520;10.528;2023-02-01T10:52:31;100636.44;;;6.36
76381;BMP280;65202;52.520;10.528;2023-02-01T10:55:35;100634.06;;;6.52
76381;BMP280;65202;52.520;10.528;2023-02-01T10:58:19;100628.59;;;6.57
76381;BMP280;65202;52.520;10.528;2023-02-01T11:00:53;100626.03;;;6.70
76381;BMP280;65202;52.520;10.528;2023-02-01T11:03:44;100623.72;;;6.88
76381;BMP280;65202;52.520;10.528;2023-02-01T11:06:24;100614.81;;;6.91
76381;BMP280;65202;52.520;10.528;2023-02-01T11:11:33;100617.09;;;6.74
76381;BMP280;65202;52.520;10.528;2023-02-01T11:16:58;100617.09;;;6.59
76381;BMP280;65202;52.520;10.528;2023-02-01T11:19:27;100604.84;;;6.62
76381;BMP280;65202;52.520;10.528;2023-02-01T11:21:58;100607.25;;;6.61
76381;BMP280;65202;52.520;10.528;2023-02-01T11:24:34;100599.44;;;6.55
76381;BMP280;65202;52.520;10.528;2023-02-01T11:27:16;100598.66;;;6.56
76381;BMP280;65202;52.520;10.528;2023-02-01T11:29:59;100585.88;;;6.50
76381;BMP280;65202;52.520;10.528;2023-02-01T11:32:28;100583.47;;;6.51
76381;BMP280;65202;52.520;10.528;2023-02-01T11:35:04;100571.31;;;6.56
76381;BMP280;65202;52.520;10.528;2023-02-01T11:37:37;100561.34;;;6.56
76381;BMP280;65202;52.520;10.528;2023-02-01T11:43:28;100541.19;;;6.66
76381;BMP280;65202;52.520;10.528;2023-02-01T11:46:01;100537.91;;;6.81
76381;BMP280;65202;52.520;10.528;2023-02-01T11:48:31;100532.41;;;6.87
76381;BMP280;65202;52.520;10.528;2023-02-01T11:53:55;100525.47;;;6.81
76381;BMP280;65202;52.520;10.528;2023-02-01T11:56:56;100521.97;;;6.92
76381;BMP280;65202;52.520;10.528;2023-02-01T12:00:39;100517.81;;;6.92
76381;BMP280;65202;52.520;10.528;2023-02-01T12:05:49;100515.88;;;6.87
76381;BMP280;65202;52.520;10.528;2023-02-01T12:11:43;100512.63;;;6.74
76381;BMP280;65202;52.520;10.528;2023-02-01T12:14:24;100499.22;;;6.72
76381;BMP280;65202;52.520;10.528;2023-02-01T12:23:41;100479.50;;;6.60
76381;BMP280;65202;52.520;10.528;2023-02-01T12:26:42;100474.88;;;6.52
76381;BMP280;65202;52.520;10.528;2023-02-01T12:32:20;100462.06;;;6.30
76381;BMP280;65202;52.520;10.528;2023-02-01T12:37:44;100450.03;;;6.23
76381;BMP280;65202;52.520;10.528;2023-02-01T12:41:00;100449.97;;;6.22
76381;BMP280;65202;52.520;10.528;2023-02-01T12:43:57;100418.59;;;6.09
76381;BMP280;65202;52.520;10.528;2023-02-01T12:52:33;100389.31;;;5.89
76381;BMP280;65202;52.520;10.528;2023-02-01T12:58:11;100379.19;;;5.86
76381;BMP280;65202;52.520;10.528;2023-02-01T13:01:16;100376.00;;;5.89
76381;BMP280;65202;52.520;10.528;2023-02-01T13:04:16;100381.31;;;5.80
76381;BMP280;65202;52.520;10.528;2023-02-01T13:06:55;100369.56;;;5.78
76381;BMP280;65202;52.520;10.528;2023-02-01T13:09:36;100364.72;;;5.79
76381;BMP280;65202;52.520;10.528;2023-02-01T13:12:18;100362.63;;;5.72
76381;BMP280;65202;52.520;10.528;2023-02-01T13:15:24;100350.28;;;5.74
76381;BMP280;65202;52.520;10.528;2023-02-01T13:17:55;100340.88;;;5.68
76381;BMP280;65202;52.520;10.528;2023-02-01T13:20:33;100345.31;;;5.60
76381;BMP280;65202;52.520;10.528;2023-02-01T13:23:11;100335.47;;;5.61
76381;BMP280;65202;52.520;10.528;2023-02-01T13:25:50;100321.25;;;5.59
76381;BMP280;65202;52.520;10.528;2023-02-01T13:34:25;100320.81;;;5.51
76381;BMP280;65202;52.520;10.528;2023-02-01T13:45:47;100391.09;;;5.23
76381;BMP280;65202;52.520;10.528;2023-02-01T13:48:23;100390.19;;;5.21
76381;BMP280;65202;52.520;10.528;2023-02-01T13:50:58;100382.38;;;5.15
76381;BMP280;65202;52.520;10.528;2023-02-01T13:53:31;100374.06;;;5.14
76381;BMP280;65202;52.520;10.528;2023-02-01T13:56:16;100381.22;;;5.10
76381;BMP280;65202;52.520;10.528;2023-02-01T13:58:47;100404.91;;;5.05
76381;BMP280;65202;52.520;10.528;2023-02-01T14:03:50;100437.25;;;5.06
76381;BMP280;65202;52.520;10.528;2023-02-01T14:11:48;100456.09;;;5.03
76381;BMP280;65202;52.520;10.528;2023-02-01T14:19:37;100460.00;;;4.99
76381;BMP280;65202;52.520;10.528;2023-02-01T14:24:41;100457.91;;;5.05
76381;BMP280;65202;52.520;10.528;2023-02-01T14:27:21;100466.75;;;5.02
76381;BMP280;65202;52.520;10.528;2023-02-01T14:29:56;100470.97;;;5.03
76381;BMP280;65202;52.520;10.528;2023-02-01T14:32:35;100463.06;;;4.96
76381;BMP280;65202;52.520;10.528;2023-02-01T14:35:08;100461.13;;;4.92
76381;BMP280;65202;52.520;10.528;2023-02-01T14:37:46;100466.47;;;4.97
76381;BMP280;65202;52.520;10.528;2023-02-01T14:40:25;100462.56;;;5.01
76381;BMP280;65202;52.520;10.528;2023-02-01T14:42:54;100474.22;;;5.02
76381;BMP280;65202;52.520;10.528;2023-02-01T14:45:47;100467.69;;;5.04
76381;BMP280;65202;52.520;10.528;2023-02-01T14:50:46;100481.91;;;5.06
76381;BMP280;65202;52.520;10.528;2023-02-01T14:53:19;100481.91;;;5.06
76381;BMP280;65202;52.520;10.528;2023-02-01T14:59:06;100499.06;;;5.16
76381;BMP280;65202;52.520;10.528;2023-02-01T15:01:38;100506.34;;;5.13
76381;BMP280;65202;52.520;10.528;2023-02-01T15:04:17;100512.56;;;5.07
76381;BMP280;65202;52.520;10.528;2023-02-01T15:06:50;100515.81;;;5.06
76381;BMP280;65202;52.520;10.528;2023-02-01T15:09:26;100530.31;;;5.00
76381;BMP280;65202;52.520;10.528;2023-02-01T15:14:41;100513.34;;;4.93
76381;BMP280;65202;52.520;10.528;2023-02-01T15:17:30;100518.31;;;4.93
76381;BMP280;65202;52.520;10.528;2023-02-01T15:20:13;100522.59;;;4.96
76381;BMP280;65202;52.520;10.528;2023-02-01T15:23:01;100530.88;;;4.96
76381;BMP280;65202;52.520;10.528;2023-02-01T15:25:35;100530.41;;;4.89
76381;BMP280;65202;52.520;10.528;2023-02-01T15:28:08;100524.47;;;4.87
76381;BMP280;65202;52.520;10.528;2023-02-01T15:30:39;100529.47;;;4.99
76381;BMP280;65202;52.520;10.528;2023-02-01T15:33:18;100530.78;;;4.95
76381;BMP280;65202;52.520;10.528;2023-02-01T15:35:48;100531.38;;;4.91
76381;BMP280;65202;52.520;10.528;2023-02-01T15:41:03;100520.97;;;4.96
76381;BMP280;65202;52.520;10.528;2023-02-01T15:43:36;100523.44;;;4.96
76381;BMP280;65202;52.520;10.528;2023-02-01T15:46:15;100518.00;;;4.89
76381;BMP280;65202;52.520;10.528;2023-02-01T15:48:56;100520.97;;;4.83
76381;BMP280;65202;52.520;10.528;2023-02-01T15:51:27;100535.06;;;4.71
76381;BMP280;65202;52.520;10.528;2023-02-01T15:54:00;100523.53;;;4.72
76381;BMP280;65202;52.520;10.528;2023-02-01T15:56:36;100530.09;;;4.71
76381;BMP280;65202;52.520;10.528;2023-02-01T15:59:13;100530.59;;;4.66
76381;BMP280;65202;52.520;10.528;2023-02-01T16:01:46;100524.66;;;4.64
76381;BMP280;65202;52.520;10.528;2023-02-01T16:04:21;100530.94;;;4.59
76381;BMP280;65202;52.520;10.528;2023-02-01T16:06:55;100526.94;;;4.48
76381;BMP280;65202;52.520;10.528;2023-02-01T16:09:39;100525.59;;;4.53
76381;BMP280;65202;52.520;10.528;2023-02-01T16:12:28;100541.91;;;4.49
76381;BMP280;65202;52.520;10.528;2023-02-01T16:15:02;100538.47;;;4.47
76381;BMP280;65202;52.520;10.528;2023-02-01T16:17:30;100555.53;;;4.43
76381;BMP280;65202;52.520;10.528;2023-02-01T16:19:58;100562.41;;;4.47
76381;BMP280;65202;52.520;10.528;2023-02-01T16:22:25;100555.41;;;4.41
76381;BMP280;65202;52.520;10.528;2023-02-01T16:24:52;100579.66;;;4.45
76381;BMP280;65202;52.520;10.528;2023-02-01T16:27:20;100582.16;;;4.45
76381;BMP280;65202;52.520;10.528;2023-02-01T16:29:49;100594.06;;;4.51
76381;BMP280;65202;52.520;10.528;2023-02-01T16:32:18;100588.03;;;4.47